createdAt,value
2018-06-02T00:00:07.988Z,62.71
2018-06-02T00:01:45.299Z,62.69
2018-06-02T00:03:22.507Z,62.70
2018-06-02T00:05:00.094Z,62.70
2018-06-02T00:06:36.460Z,62.68
2018-06-02T00:08:12.745Z,62.69
2018-06-02T00:09:49.199Z,62.69
2018-06-02T00:11:25.877Z,62.70
2018-06-02T00:13:02.916Z,62.70
2018-06-02T00:14:39.318Z,62.69
2018-06-02T00:16:17.018Z,62.68
2018-06-02T00:17:54.073Z,62.68
2018-06-02T00:19:33.012Z,62.67
2018-06-02T00:21:09.452Z,62.67
2018-06-02T00:22:47.205Z,62.66
2018-06-02T00:24:24.811Z,62.67
2018-06-02T00:26:01.112Z,62.65
2018-06-02T00:27:38.189Z,62.68
2018-06-02T00:29:14.472Z,62.66
2018-06-02T00:30:51.560Z,62.64
2018-06-02T00:32:28.658Z,62.67
2018-06-02T00:34:05.013Z,62.65
2018-06-02T00:35:41.249Z,62.64
2018-06-02T00:37:18.294Z,62.65
2018-06-02T00:38:55.696Z,62.65
2018-06-02T00:40:32.715Z,62.66
2018-06-02T00:42:09.740Z,62.68
2018-06-02T00:43:46.708Z,62.68
2018-06-02T00:45:24.629Z,62.67
2018-06-02T00:47:02.148Z,62.65
2018-06-02T00:48:38.963Z,62.66
2018-06-02T00:50:15.804Z,62.66
2018-06-02T00:51:52.225Z,62.67
2018-06-02T00:53:29.332Z,62.66
2018-06-02T00:55:09.916Z,62.67
2018-06-02T00:56:46.658Z,62.69
2018-06-02T00:58:22.947Z,62.71
2018-06-02T00:59:59.256Z,62.69
2018-06-02T01:01:35.990Z,62.68
2018-06-02T01:03:12.524Z,62.69
2018-06-02T01:04:49.649Z,62.68
2018-06-02T01:06:27.144Z,62.69
2018-06-02T01:08:04.130Z,62.69
2018-06-02T01:09:40.727Z,62.70
2018-06-02T01:11:17.310Z,62.70
2018-06-02T01:12:54.309Z,62.69
2018-06-02T01:14:30.632Z,62.69
2018-06-02T01:16:08.285Z,62.70
2018-06-02T01:17:44.549Z,62.69
2018-06-02T01:19:20.866Z,62.71
2018-06-02T01:20:57.166Z,62.71
2018-06-02T01:22:33.752Z,62.72
2018-06-02T01:24:10.031Z,62.73
2018-06-02T01:25:47.056Z,62.73
2018-06-02T01:27:23.486Z,62.72
2018-06-02T01:29:00.917Z,62.73
2018-06-02T01:30:37.423Z,62.73
2018-06-02T01:32:13.743Z,62.74
2018-06-02T01:33:49.992Z,62.74
2018-06-02T01:35:26.529Z,62.75
2018-06-02T01:37:03.444Z,62.76
2018-06-02T01:38:39.728Z,62.75
2018-06-02T01:40:16.131Z,62.76
2018-06-02T01:41:52.410Z,62.76
2018-06-02T01:43:28.653Z,62.75
2018-06-02T01:45:05.304Z,62.76
2018-06-02T01:46:44.260Z,62.78
2018-06-02T01:48:21.499Z,62.78
2018-06-02T01:49:57.765Z,62.78
2018-06-02T01:51:34.526Z,62.80
2018-06-02T01:53:11.900Z,62.80
2018-06-02T01:54:48.934Z,62.82
2018-06-02T01:56:25.236Z,62.82
2018-06-02T01:58:02.275Z,62.82
2018-06-02T01:59:39.789Z,62.83
2018-06-02T02:01:16.603Z,62.83
2018-06-02T02:02:52.844Z,62.84
2018-06-02T02:04:30.496Z,62.84
2018-06-02T02:06:07.454Z,62.83
2018-06-02T02:07:44.319Z,62.84
2018-06-02T02:09:21.157Z,62.85
2018-06-02T02:10:57.801Z,62.87
2018-06-02T02:12:36.190Z,62.86
2018-06-02T02:14:13.840Z,62.87
2018-06-02T02:15:50.231Z,62.88
2018-06-02T02:17:26.539Z,62.87
2018-06-02T02:19:04.057Z,62.89
2018-06-02T02:20:40.311Z,62.89
2018-06-02T02:22:16.685Z,62.90
2018-06-02T02:23:52.944Z,62.89
2018-06-02T02:25:30.269Z,62.90
2018-06-02T02:27:07.350Z,62.91
2018-06-02T02:28:43.608Z,62.92
2018-06-02T02:30:20.233Z,62.92
2018-06-02T02:31:57.749Z,62.91
2018-06-02T02:33:34.796Z,62.94
2018-06-02T02:35:11.652Z,62.93
2018-06-02T02:38:30.065Z,62.94
2018-06-02T02:40:06.509Z,62.95
2018-06-02T02:41:44.194Z,62.95
2018-06-02T02:43:20.450Z,62.96
2018-06-02T02:44:57.044Z,62.97
2018-06-02T02:46:33.672Z,62.99
2018-06-02T02:48:10.437Z,62.99
2018-06-02T02:49:46.664Z,63.00
2018-06-02T02:51:23.533Z,63.02
2018-06-02T02:52:59.999Z,63.01
2018-06-02T02:54:36.583Z,63.01
2018-06-02T02:56:13.755Z,63.02
2018-06-02T02:57:50.723Z,63.02
2018-06-02T02:59:27.414Z,63.04
2018-06-02T03:01:03.900Z,63.04
2018-06-02T03:02:40.858Z,63.04
2018-06-02T03:04:18.056Z,63.03
2018-06-02T03:05:54.749Z,63.05
2018-06-02T03:07:31.153Z,63.06
2018-06-02T03:09:09.011Z,63.08
2018-06-02T03:10:45.895Z,63.05
2018-06-02T03:12:22.677Z,63.03
2018-06-02T03:13:59.847Z,63.03
2018-06-02T03:15:36.568Z,63.03
2018-06-02T03:17:14.264Z,63.05
2018-06-02T03:18:51.156Z,63.07
2018-06-02T03:20:28.044Z,63.06
2018-06-02T03:22:04.650Z,63.08
2018-06-02T03:23:43.472Z,63.09
2018-06-02T03:25:20.122Z,63.10
2018-06-02T03:26:56.655Z,63.07
2018-06-02T03:28:33.225Z,63.06
2018-06-02T03:30:11.613Z,63.06
2018-06-02T03:31:48.080Z,63.05
2018-06-02T03:33:24.893Z,63.07
2018-06-02T03:35:01.376Z,63.10
2018-06-02T03:36:41.063Z,63.10
2018-06-02T03:38:19.140Z,63.09
2018-06-02T03:39:55.460Z,63.08
2018-06-02T03:41:31.776Z,63.10
2018-06-02T03:43:10.147Z,63.10
2018-06-02T03:44:46.436Z,63.10
2018-06-02T03:46:22.912Z,63.11
2018-06-02T03:47:59.985Z,63.10
2018-06-02T03:49:36.789Z,63.11
2018-06-02T03:51:13.245Z,63.11
2018-06-02T03:52:49.604Z,63.13
2018-06-02T03:54:26.905Z,63.13
2018-06-02T03:56:03.640Z,63.11
2018-06-02T03:57:39.888Z,63.14
2018-06-02T03:59:17.573Z,63.14
2018-06-02T04:00:54.075Z,63.14
2018-06-02T04:02:31.567Z,63.11
2018-06-02T04:04:08.669Z,63.09
2018-06-02T04:05:45.681Z,63.11
2018-06-02T04:07:22.182Z,63.08
2018-06-02T04:08:59.203Z,63.07
2018-06-02T04:10:35.838Z,63.06
2018-06-02T04:12:12.492Z,63.06
2018-06-02T04:13:50.083Z,63.08
2018-06-02T04:15:28.793Z,63.08
2018-06-02T04:17:06.145Z,63.08
2018-06-02T04:18:42.717Z,63.08
2018-06-02T04:20:19.736Z,63.09
2018-06-02T04:21:56.746Z,63.08
2018-06-02T04:23:33.713Z,63.06
2018-06-02T04:25:10.199Z,63.06
2018-06-02T04:26:46.809Z,63.08
2018-06-02T04:28:24.671Z,63.05
2018-06-02T04:30:01.404Z,63.05
2018-06-02T04:31:38.066Z,63.04
2018-06-02T04:33:14.669Z,63.03
2018-06-02T04:34:55.165Z,63.05
2018-06-02T04:36:31.706Z,63.04
2018-06-02T04:38:08.142Z,63.03
2018-06-02T04:39:44.749Z,63.02
2018-06-02T04:41:22.849Z,63.03
2018-06-02T04:42:59.188Z,63.03
2018-06-02T04:44:35.427Z,63.02
2018-06-02T04:46:11.904Z,63.03
2018-06-02T04:47:49.179Z,63.02
2018-06-02T04:49:25.426Z,63.03
2018-06-02T04:51:01.772Z,63.04
2018-06-02T04:52:38.049Z,63.01
2018-06-02T04:54:14.753Z,63.00
2018-06-02T04:55:52.722Z,62.98
2018-06-02T04:57:29.038Z,62.98
2018-06-02T04:59:06.060Z,62.99
2018-06-02T05:00:43.123Z,62.98
2018-06-02T05:02:20.053Z,62.99
2018-06-02T05:03:56.556Z,62.97
2018-06-02T05:05:32.943Z,62.96
2018-06-02T05:07:09.565Z,62.98
2018-06-02T05:08:45.843Z,62.99
2018-06-02T05:10:22.965Z,62.97
2018-06-02T05:11:59.195Z,62.97
2018-06-02T05:13:35.569Z,62.95
2018-06-02T05:15:11.932Z,62.95
2018-06-02T05:16:49.764Z,62.95
2018-06-02T05:18:26.019Z,62.95
2018-06-02T05:20:02.708Z,62.94
2018-06-02T05:21:39.748Z,62.93
2018-06-02T05:23:18.543Z,62.96
2018-06-02T05:24:55.039Z,62.95
2018-06-02T05:26:31.544Z,62.92
2018-06-02T05:28:07.852Z,62.94
2018-06-02T05:29:44.104Z,62.94
2018-06-02T05:31:21.144Z,62.95
2018-06-02T05:32:57.839Z,62.92
2018-06-02T05:34:34.443Z,62.91
2018-06-02T05:36:11.183Z,62.92
2018-06-02T05:37:48.071Z,62.92
2018-06-02T05:39:24.733Z,62.89
2018-06-02T05:41:01.027Z,62.88
2018-06-02T05:42:37.408Z,62.91
2018-06-02T05:44:14.458Z,62.90
2018-06-02T05:45:51.944Z,62.88
2018-06-02T05:47:28.331Z,62.85
2018-06-02T05:49:05.484Z,62.85
2018-06-02T05:50:41.841Z,62.85
2018-06-02T05:52:19.408Z,62.85
2018-06-02T05:53:56.440Z,62.84
2018-06-02T05:55:33.532Z,62.83
2018-06-02T05:57:09.827Z,62.86
2018-06-02T05:58:46.491Z,62.88
2018-06-02T06:00:25.518Z,62.88
2018-06-02T06:02:01.888Z,62.85
2018-06-02T06:03:38.284Z,62.80
2018-06-02T06:05:15.035Z,62.78
2018-06-02T06:06:52.431Z,62.78
2018-06-02T06:08:29.064Z,62.78
2018-06-02T06:10:05.961Z,62.79
2018-06-02T06:11:42.939Z,62.78
2018-06-02T06:13:20.105Z,62.79
2018-06-02T06:14:57.699Z,62.78
2018-06-02T06:16:34.398Z,62.78
2018-06-02T06:18:11.155Z,62.77
2018-06-02T06:19:48.952Z,62.78
2018-06-02T06:21:25.570Z,62.78
2018-06-02T06:23:02.456Z,62.82
2018-06-02T06:24:39.246Z,62.81
2018-06-02T06:26:16.567Z,62.78
2018-06-02T06:27:54.314Z,62.76
2018-06-02T06:29:31.053Z,62.75
2018-06-02T06:31:08.245Z,62.75
2018-06-02T06:32:44.581Z,62.76
2018-06-02T06:34:21.565Z,62.74
2018-06-02T06:35:58.666Z,62.75
2018-06-02T06:37:35.347Z,62.74
2018-06-02T06:39:12.205Z,62.73
2018-06-02T06:40:48.522Z,62.74
2018-06-02T06:42:25.543Z,62.75
2018-06-02T06:44:02.399Z,62.73
2018-06-02T06:45:39.509Z,62.71
2018-06-02T06:47:16.592Z,62.72
2018-06-02T06:48:52.965Z,62.71
2018-06-02T06:50:29.967Z,62.71
2018-06-02T06:52:07.118Z,62.72
2018-06-02T06:53:43.371Z,62.70
2018-06-02T06:55:20.967Z,62.69
2018-06-02T06:56:58.939Z,62.66
2018-06-02T06:58:35.187Z,62.67
2018-06-02T07:00:11.540Z,62.65
2018-06-02T07:01:48.145Z,62.66
2018-06-02T07:03:25.030Z,62.68
2018-06-02T07:05:01.457Z,62.69
2018-06-02T07:06:37.804Z,62.69
2018-06-02T07:08:14.102Z,62.70
2018-06-02T07:09:51.067Z,62.70
2018-06-02T07:11:27.399Z,62.71
2018-06-02T07:13:04.532Z,62.71
2018-06-02T07:14:41.003Z,62.72
2018-06-02T07:16:18.736Z,62.72
2018-06-02T07:17:55.789Z,62.71
2018-06-02T07:19:32.107Z,62.71
2018-06-02T07:21:08.392Z,62.71
2018-06-02T07:22:45.729Z,62.71
2018-06-02T07:24:24.441Z,62.73
2018-06-02T07:26:02.183Z,62.70
2018-06-02T07:27:38.799Z,62.71
2018-06-02T07:29:19.041Z,62.71
2018-06-02T07:30:55.913Z,62.71
2018-06-02T07:32:33.892Z,62.71
2018-06-02T07:34:10.199Z,62.71
2018-06-02T07:35:46.910Z,62.72
2018-06-02T07:37:23.890Z,62.71
2018-06-02T07:39:00.600Z,62.73
2018-06-02T07:40:37.009Z,62.74
2018-06-02T07:42:13.841Z,62.72
2018-06-02T07:43:50.543Z,62.71
2018-06-02T07:45:28.776Z,62.74
2018-06-02T07:47:06.900Z,62.72
2018-06-02T07:48:43.620Z,62.74
2018-06-02T07:50:20.537Z,62.73
2018-06-02T07:51:57.014Z,62.72
2018-06-02T07:53:34.195Z,62.73
2018-06-02T07:55:10.998Z,62.72
2018-06-02T07:56:47.521Z,62.72
2018-06-02T07:58:24.397Z,62.72
2018-06-02T08:00:01.420Z,62.71
2018-06-02T08:01:39.175Z,62.71
2018-06-02T08:03:16.304Z,62.70
2018-06-02T08:04:52.913Z,62.69
2018-06-02T08:06:29.276Z,62.68
2018-06-02T08:08:06.344Z,62.67
2018-06-02T08:09:42.705Z,62.66
2018-06-02T08:11:19.208Z,62.66
2018-06-02T08:12:55.515Z,62.64
2018-06-02T08:14:32.447Z,62.64
2018-06-02T08:16:09.851Z,62.65
2018-06-02T08:17:46.152Z,62.63
2018-06-02T08:19:23.375Z,62.64
2018-06-02T08:21:01.014Z,62.64
2018-06-02T08:22:37.294Z,62.62
2018-06-02T08:24:13.858Z,62.63
2018-06-02T08:25:50.471Z,62.63
2018-06-02T08:27:27.477Z,62.62
2018-06-02T08:29:03.892Z,62.62
2018-06-02T08:30:40.351Z,62.62
2018-06-02T08:32:17.421Z,62.60
2018-06-02T08:33:55.031Z,62.59
2018-06-02T08:35:32.105Z,62.60
2018-06-02T08:37:09.167Z,62.61
2018-06-02T08:38:46.268Z,62.62
2018-06-02T08:40:22.618Z,62.61
2018-06-02T08:41:59.900Z,62.58
2018-06-02T08:43:36.905Z,62.59
2018-06-02T08:45:17.625Z,62.59
2018-06-02T08:46:54.289Z,62.58
2018-06-02T08:48:30.624Z,62.58
2018-06-02T08:50:06.924Z,62.57
2018-06-02T08:51:43.707Z,62.56
2018-06-02T08:53:21.511Z,62.56
2018-06-02T08:54:57.907Z,62.58
2018-06-02T08:56:34.280Z,62.56
2018-06-02T08:58:10.932Z,62.58
2018-06-02T08:59:47.276Z,62.53
2018-06-02T09:01:23.815Z,62.53
2018-06-02T09:03:00.980Z,62.51
2018-06-02T09:04:38.557Z,62.50
2018-06-02T09:06:15.691Z,62.52
2018-06-02T09:07:52.042Z,62.52
2018-06-02T09:09:29.029Z,62.50
2018-06-02T09:11:06.285Z,62.47
2018-06-02T09:12:42.687Z,62.43
2018-06-02T09:14:19.369Z,62.42
2018-06-02T09:15:56.340Z,62.42
2018-06-02T09:17:33.124Z,62.43
2018-06-02T09:19:09.541Z,62.42
2018-06-02T09:20:45.901Z,62.42
2018-06-02T09:22:23.191Z,62.42
2018-06-02T09:23:59.784Z,62.39
2018-06-02T09:25:36.265Z,62.40
2018-06-02T09:27:12.630Z,62.39
2018-06-02T09:28:49.488Z,62.38
2018-06-02T09:30:27.990Z,62.39
2018-06-02T09:32:04.740Z,62.39
2018-06-02T09:33:40.984Z,62.37
2018-06-02T09:35:18.390Z,62.36
2018-06-02T09:36:55.372Z,62.35
2018-06-02T09:38:32.479Z,62.33
2018-06-02T09:40:08.753Z,62.35
2018-06-02T09:41:45.174Z,62.36
2018-06-02T09:43:23.187Z,62.35
2018-06-02T09:44:59.507Z,62.31
2018-06-02T09:46:37.020Z,62.28
2018-06-02T09:48:14.286Z,62.27
2018-06-02T09:49:51.026Z,62.28
2018-06-02T09:51:27.403Z,62.22
2018-06-02T09:53:04.050Z,62.21
2018-06-02T09:54:41.220Z,62.22
2018-06-02T09:56:17.889Z,62.22
2018-06-02T09:57:54.400Z,62.21
2018-06-02T09:59:30.732Z,62.19
2018-06-02T10:01:08.099Z,62.16
2018-06-02T10:02:44.831Z,62.15
2018-06-02T10:04:21.712Z,62.16
2018-06-02T10:05:58.059Z,62.16
2018-06-02T10:07:35.016Z,62.13
2018-06-02T10:09:11.741Z,62.12
2018-06-02T10:10:48.464Z,62.10
2018-06-02T10:12:24.859Z,62.08
2018-06-02T10:14:01.390Z,62.06
2018-06-02T10:15:38.340Z,62.06
2018-06-02T10:17:14.649Z,62.04
2018-06-02T10:18:50.985Z,62.03
2018-06-02T10:20:27.504Z,62.03
2018-06-02T10:22:04.535Z,62.00
2018-06-02T10:23:40.931Z,61.95
2018-06-02T10:25:18.734Z,61.93
2018-06-02T10:26:56.009Z,61.92
2018-06-02T10:28:32.944Z,61.92
2018-06-02T10:30:09.397Z,61.89
2018-06-02T10:31:46.028Z,61.90
2018-06-02T10:33:23.379Z,61.88
2018-06-02T10:35:03.702Z,61.83
2018-06-02T10:36:40.611Z,61.77
2018-06-02T10:38:16.891Z,61.74
2018-06-02T10:39:53.448Z,61.74
2018-06-02T10:41:30.048Z,61.72
2018-06-02T10:43:07.221Z,61.71
2018-06-02T10:44:43.610Z,61.70
2018-06-02T10:46:21.202Z,61.69
2018-06-02T10:47:57.796Z,61.66
2018-06-02T10:49:34.874Z,61.64
2018-06-02T10:51:11.168Z,61.62
2018-06-02T10:52:47.498Z,61.58
2018-06-02T10:54:24.998Z,61.58
2018-06-02T10:56:01.412Z,61.55
2018-06-02T10:57:38.672Z,61.54
2018-06-02T10:59:14.968Z,61.51
2018-06-02T11:00:51.924Z,61.47
2018-06-02T11:02:29.068Z,61.46
2018-06-02T11:04:05.504Z,61.42
2018-06-02T11:05:42.588Z,61.37
2018-06-02T11:07:19.150Z,61.36
2018-06-02T11:08:55.423Z,61.36
2018-06-02T11:10:31.836Z,61.31
2018-06-02T11:12:08.916Z,61.26
2018-06-02T11:13:45.681Z,61.22
2018-06-02T11:15:22.225Z,61.19
2018-06-02T11:16:59.640Z,61.20
2018-06-02T11:18:35.908Z,61.15
2018-06-02T11:20:12.695Z,61.15
2018-06-02T11:21:49.884Z,61.12
2018-06-02T11:23:26.243Z,61.10
2018-06-02T11:25:02.878Z,61.05
2018-06-02T11:26:39.128Z,61.01
2018-06-02T11:28:15.411Z,60.98
2018-06-02T11:29:53.283Z,60.94
2018-06-02T11:31:29.887Z,60.90
2018-06-02T11:33:07.439Z,60.88
2018-06-02T11:34:44.494Z,60.84
2018-06-02T11:36:20.841Z,60.79
2018-06-02T11:37:57.085Z,60.75
2018-06-02T11:39:33.776Z,60.72
2018-06-02T11:41:10.220Z,60.69
2018-06-02T11:42:46.470Z,60.65
2018-06-02T11:44:23.603Z,60.62
2018-06-02T11:46:00.732Z,60.58
2018-06-02T11:47:37.158Z,60.55
2018-06-02T11:49:13.689Z,60.52
2018-06-02T11:50:50.400Z,60.48
2018-06-02T11:52:26.952Z,60.43
2018-06-02T11:54:03.439Z,60.40
2018-06-02T11:55:40.085Z,60.39
2018-06-02T11:57:16.511Z,60.39
2018-06-02T11:58:53.929Z,60.36
2018-06-02T12:00:30.908Z,60.29
2018-06-02T12:02:07.480Z,60.25
2018-06-02T12:03:44.592Z,60.22
2018-06-02T12:05:22.561Z,60.20
2018-06-02T12:06:59.832Z,60.16
2018-06-02T12:08:36.293Z,60.12
2018-06-02T12:10:12.654Z,60.08
2018-06-02T12:11:49.468Z,60.04
2018-06-02T12:13:25.883Z,60.04
2018-06-02T12:15:02.452Z,59.97
2018-06-02T12:16:38.991Z,59.95
2018-06-02T12:18:16.389Z,59.93
2018-06-02T12:19:53.118Z,59.90
2018-06-02T12:21:29.685Z,59.85
2018-06-02T12:23:06.829Z,59.81
2018-06-02T12:24:46.678Z,59.77
2018-06-02T12:26:24.922Z,59.74
2018-06-02T12:28:06.645Z,59.70
2018-06-02T12:29:44.218Z,59.63
2018-06-02T12:31:21.961Z,59.61
2018-06-02T12:32:58.273Z,59.55
2018-06-02T12:34:35.349Z,59.54
2018-06-02T12:36:13.015Z,59.50
2018-06-02T12:37:50.141Z,59.46
2018-06-02T12:39:26.562Z,59.40
2018-06-02T12:41:03.693Z,59.39
2018-06-02T12:42:42.684Z,59.33
2018-06-02T12:44:19.303Z,59.28
2018-06-02T12:45:55.899Z,59.27
2018-06-02T12:47:33.295Z,59.24
2018-06-02T12:49:10.387Z,59.15
2018-06-02T12:50:47.825Z,59.11
2018-06-02T12:52:24.372Z,59.07
2018-06-02T12:54:00.810Z,59.04
2018-06-02T12:55:37.180Z,59.00
2018-06-02T12:57:14.286Z,58.95
2018-06-02T12:58:51.252Z,58.92
2018-06-02T13:00:30.186Z,58.87
2018-06-02T13:02:06.594Z,58.83
2018-06-02T13:03:43.897Z,58.79
2018-06-02T13:05:23.004Z,58.76
2018-06-02T13:07:02.130Z,58.72
2018-06-02T13:08:40.318Z,58.70
2018-06-02T13:10:19.118Z,58.64
2018-06-02T13:11:55.465Z,58.61
2018-06-02T13:13:33.131Z,58.54
2018-06-02T13:15:09.972Z,58.51
2018-06-02T13:16:48.847Z,58.47
2018-06-02T13:18:25.331Z,58.43
2018-06-02T13:20:02.105Z,58.39
2018-06-02T13:21:39.331Z,58.39
2018-06-02T13:23:16.976Z,58.32
2018-06-02T13:24:56.462Z,58.28
2018-06-02T13:26:35.983Z,58.24
2018-06-02T13:28:15.630Z,58.21
2018-06-02T13:29:55.936Z,58.17
2018-06-02T13:31:34.635Z,58.13
2018-06-02T13:33:13.128Z,58.08
2018-06-02T13:34:56.044Z,58.06
2018-06-02T13:36:33.134Z,58.04
2018-06-02T13:38:10.274Z,57.97
2018-06-02T13:39:46.602Z,57.91
2018-06-02T13:41:22.986Z,57.87
2018-06-02T13:42:59.588Z,57.84
2018-06-02T13:44:36.814Z,57.81
2018-06-02T13:46:13.466Z,57.79
2018-06-02T13:47:51.918Z,57.78
2018-06-02T13:49:29.157Z,57.71
2018-06-02T13:51:05.599Z,57.67
2018-06-02T13:52:44.318Z,57.64
2018-06-02T13:54:22.711Z,57.61
2018-06-02T13:56:00.972Z,57.57
2018-06-02T13:57:37.613Z,57.51
2018-06-02T13:59:13.949Z,57.48
2018-06-02T14:00:51.748Z,57.45
2018-06-02T14:02:28.985Z,57.42
2018-06-02T14:04:05.333Z,57.38
2018-06-02T14:05:41.755Z,57.34
2018-06-02T14:07:18.109Z,57.32
2018-06-02T14:08:54.860Z,57.28
2018-06-02T14:10:32.599Z,57.25
2018-06-02T14:12:09.055Z,57.20
2018-06-02T14:13:46.292Z,57.16
2018-06-02T14:15:24.200Z,57.13
2018-06-02T14:17:01.429Z,57.09
2018-06-02T14:18:38.118Z,57.05
2018-06-02T14:20:16.469Z,57.02
2018-06-02T14:21:54.000Z,56.98
2018-06-02T14:23:30.756Z,56.96
2018-06-02T14:26:54.427Z,56.87
2018-06-02T14:28:36.339Z,56.84
2018-06-02T14:30:14.564Z,56.81
2018-06-02T14:32:16.165Z,56.78
2018-06-02T14:33:59.729Z,56.72
2018-06-02T14:35:37.516Z,56.68
2018-06-02T14:37:16.434Z,56.67
2018-06-02T14:38:54.559Z,56.63
2018-06-02T14:40:37.839Z,56.59
2018-06-02T14:42:17.079Z,56.56
2018-06-02T14:43:56.549Z,56.53
2018-06-02T14:45:33.147Z,56.48
2018-06-02T14:47:12.525Z,56.45
2018-06-02T14:48:49.152Z,56.39
2018-06-02T14:50:27.139Z,56.37
2018-06-02T14:52:04.462Z,56.34
2018-06-02T14:53:42.497Z,56.31
2018-06-02T14:55:19.876Z,56.27
2018-06-02T14:56:58.762Z,56.23
2018-06-02T14:58:38.495Z,56.19
2018-06-02T15:00:18.155Z,56.16
2018-06-02T15:01:55.560Z,56.15
2018-06-02T15:03:33.231Z,56.12
2018-06-02T15:05:10.321Z,56.05
2018-06-02T15:06:50.038Z,56.02
2018-06-02T15:08:29.365Z,55.98
2018-06-02T15:10:06.270Z,55.95
2018-06-02T15:11:42.897Z,55.91
2018-06-02T15:13:20.932Z,55.88
2018-06-02T15:14:58.288Z,55.85
2018-06-02T15:16:34.884Z,55.80
2018-06-02T15:18:12.719Z,55.77
2018-06-02T15:19:50.586Z,55.75
2018-06-02T15:21:27.494Z,55.72
2018-06-02T15:23:04.245Z,55.66
2018-06-02T15:24:42.170Z,55.60
2018-06-02T15:26:19.312Z,55.60
2018-06-02T15:27:58.385Z,55.57
2018-06-02T15:29:45.559Z,55.57
2018-06-02T15:31:23.003Z,55.52
2018-06-02T15:33:03.433Z,55.48
2018-06-02T15:34:39.975Z,55.47
2018-06-02T15:36:17.633Z,55.42
2018-06-02T15:37:54.814Z,55.39
2018-06-02T15:39:32.416Z,55.35
2018-06-02T15:41:10.293Z,55.31
2018-06-02T15:42:47.593Z,55.28
2018-06-02T15:44:24.144Z,55.26
2018-06-02T15:46:00.520Z,55.24
2018-06-02T15:47:37.077Z,55.24
2018-06-02T15:49:13.549Z,55.20
2018-06-02T15:50:50.489Z,55.16
2018-06-02T15:52:27.498Z,55.16
2018-06-02T15:54:03.968Z,55.14
2018-06-02T15:55:41.151Z,55.10
2018-06-02T15:57:17.631Z,55.09
2018-06-02T15:58:54.606Z,55.05
2018-06-02T16:00:30.976Z,55.05
2018-06-02T16:02:07.336Z,55.01
2018-06-02T16:03:43.712Z,55.00
2018-06-02T16:05:20.414Z,54.99
2018-06-02T16:06:56.793Z,54.96
2018-06-02T16:08:33.467Z,54.92
2018-06-02T16:10:09.767Z,54.90
2018-06-02T16:11:47.246Z,54.87
2018-06-02T16:13:23.593Z,54.86
2018-06-02T16:14:59.954Z,54.83
2018-06-02T16:16:37.144Z,54.81
2018-06-02T16:18:14.001Z,54.79
2018-06-02T16:19:59.500Z,54.77
2018-06-02T16:21:36.525Z,54.74
2018-06-02T16:23:26.920Z,54.72
2018-06-02T16:25:04.684Z,54.71
2018-06-02T16:26:41.355Z,54.68
2018-06-02T16:28:18.937Z,54.64
2018-06-02T16:29:56.746Z,54.63
2018-06-02T16:31:33.812Z,54.61
2018-06-02T16:33:10.895Z,54.58
2018-06-02T16:34:47.674Z,54.55
2018-06-02T16:36:29.096Z,54.53
2018-06-02T16:38:20.066Z,54.51
2018-06-02T16:39:59.680Z,54.47
2018-06-02T16:41:36.844Z,54.46
2018-06-02T16:43:14.081Z,54.45
2018-06-02T16:44:50.711Z,54.42
2018-06-02T16:46:27.288Z,54.40
2018-06-02T16:48:03.702Z,54.41
2018-06-02T16:49:42.289Z,54.36
2018-06-02T16:51:19.680Z,54.35
2018-06-02T16:52:56.024Z,54.32
2018-06-02T16:54:32.577Z,54.31
2018-06-02T16:56:10.544Z,54.28
2018-06-02T16:57:47.894Z,54.26
2018-06-02T16:59:25.055Z,54.27
2018-06-02T17:01:02.348Z,54.22
2018-06-02T17:02:39.257Z,54.21
2018-06-02T17:04:15.762Z,54.21
2018-06-02T17:05:52.853Z,54.17
2018-06-02T17:07:31.209Z,54.14
2018-06-02T17:09:09.510Z,54.13
2018-06-02T17:10:46.446Z,54.11
2018-06-02T17:12:23.689Z,54.15
2018-06-02T17:14:03.606Z,54.09
2018-06-02T17:15:40.865Z,54.06
2018-06-02T17:17:18.031Z,54.05
2018-06-02T17:18:55.571Z,54.03
2018-06-02T17:20:32.598Z,53.98
2018-06-02T17:22:13.490Z,53.97
2018-06-02T17:23:56.631Z,53.98
2018-06-02T17:25:35.707Z,53.95
2018-06-02T17:27:12.353Z,53.96
2018-06-02T17:28:50.381Z,53.96
2018-06-02T17:30:26.823Z,53.90
2018-06-02T17:32:04.009Z,53.89
2018-06-02T17:33:41.240Z,53.86
2018-06-02T17:35:20.438Z,53.86
2018-06-02T17:37:20.533Z,53.86
2018-06-02T17:39:23.146Z,53.83
2018-06-02T17:41:01.838Z,53.84
2018-06-02T17:42:40.694Z,53.80
2018-06-02T17:44:20.661Z,53.81
2018-06-02T17:46:00.024Z,53.80
2018-06-02T17:47:37.458Z,53.74
2018-06-02T17:49:17.351Z,53.71
2018-06-02T17:50:55.748Z,53.70
2018-06-02T17:52:50.724Z,53.70
2018-06-02T17:54:30.070Z,53.69
2018-06-02T17:56:09.572Z,53.66
2018-06-02T17:57:51.053Z,53.64
2018-06-02T17:59:37.712Z,53.64
2018-06-02T18:01:15.963Z,53.63
2018-06-02T18:02:55.560Z,53.60
2018-06-02T18:04:35.857Z,53.60
2018-06-02T18:06:13.341Z,53.60
2018-06-02T18:07:55.067Z,53.58
2018-06-02T18:09:34.173Z,53.53
2018-06-02T18:11:16.500Z,53.51
2018-06-02T18:12:53.127Z,53.51
2018-06-02T18:14:31.537Z,53.52
2018-06-02T18:16:08.989Z,53.48
2018-06-02T18:17:50.258Z,53.47
2018-06-02T18:19:30.267Z,53.46
2018-06-02T18:21:14.442Z,53.47
2018-06-02T18:22:56.273Z,53.44
2018-06-02T18:24:46.474Z,53.42
2018-06-02T18:26:28.044Z,53.41
2018-06-02T18:28:07.167Z,53.41
2018-06-02T18:29:47.378Z,53.40
2018-06-02T18:31:27.297Z,53.38
2018-06-02T18:33:09.715Z,53.34
2018-06-02T18:34:49.351Z,53.35
2018-06-02T18:36:29.416Z,53.34
2018-06-02T18:38:12.280Z,53.33
2018-06-02T18:39:51.708Z,53.31
2018-06-02T18:41:28.506Z,53.33
2018-06-02T18:43:05.255Z,53.28
2018-06-02T18:44:46.937Z,53.30
2018-06-02T18:46:23.410Z,53.24
2018-06-02T18:48:00.826Z,53.22
2018-06-02T18:49:42.339Z,53.22
2018-06-02T18:51:21.506Z,53.20
2018-06-02T18:52:58.691Z,53.18
2018-06-02T18:54:35.855Z,53.17
2018-06-02T18:56:19.277Z,53.17
2018-06-02T18:57:57.203Z,53.19
2018-06-02T18:59:34.475Z,53.16
2018-06-02T19:01:11.101Z,53.15
2018-06-02T19:03:03.884Z,53.11
2018-06-02T19:04:40.548Z,53.12
2018-06-02T19:06:17.797Z,53.11
2018-06-02T19:07:55.980Z,53.18
2018-06-02T19:09:34.328Z,53.12
2018-06-02T19:11:10.849Z,53.07
2018-06-02T19:12:48.670Z,53.05
2018-06-02T19:14:26.517Z,53.06
2018-06-02T19:16:04.517Z,53.06
2018-06-02T19:17:46.239Z,53.05
2018-06-02T19:19:24.865Z,53.02
2018-06-02T19:21:08.890Z,53.02
2018-06-02T19:23:40.695Z,53.02
2018-06-02T19:25:26.638Z,53.01
2018-06-02T19:27:11.122Z,52.99
2018-06-02T19:28:50.406Z,52.98
2018-06-02T19:30:29.924Z,52.98
2018-06-02T19:32:13.785Z,52.97
2018-06-02T19:33:54.939Z,52.95
2018-06-02T19:35:33.779Z,52.95
2018-06-02T19:37:19.027Z,52.96
2018-06-02T19:41:02.697Z,52.94
2018-06-02T19:43:07.261Z,52.94
2018-06-02T19:44:46.481Z,52.96
2018-06-02T19:46:28.059Z,52.93
2018-06-02T19:48:07.692Z,52.94
2018-06-02T19:49:47.958Z,52.91
2018-06-02T19:51:27.779Z,52.92
2018-06-02T19:53:05.352Z,52.91
2018-06-02T19:54:42.473Z,52.91
2018-06-02T19:56:21.862Z,52.91
2018-06-02T19:58:00.687Z,52.91
2018-06-02T19:59:38.745Z,52.91
2018-06-02T20:01:16.189Z,52.91
2018-06-02T20:02:55.776Z,52.91
2018-06-02T20:04:34.734Z,52.91
2018-06-02T20:06:15.167Z,52.91
2018-06-02T20:07:54.703Z,52.90
2018-06-02T20:09:32.238Z,52.90
2018-06-02T20:11:12.605Z,52.90
2018-06-02T20:12:52.213Z,52.89
2018-06-02T20:14:32.767Z,52.89
2018-06-02T20:16:13.003Z,52.90
2018-06-02T20:18:02.302Z,52.88
2018-06-02T20:19:40.456Z,52.89
2018-06-02T20:23:42.084Z,52.86
2018-06-02T20:25:21.573Z,52.64
2018-06-02T20:27:00.599Z,53.06
2018-06-02T20:28:40.030Z,53.24
2018-06-02T20:30:21.316Z,52.49
2018-06-02T20:32:03.692Z,53.10
2018-06-02T20:33:44.253Z,52.48
2018-06-02T20:35:22.791Z,52.83
2018-06-02T20:37:00.634Z,52.64
2018-06-02T20:38:39.766Z,52.97
2018-06-02T20:40:17.189Z,53.11
2018-06-02T20:41:54.030Z,53.26
2018-06-02T20:43:30.368Z,52.50
2018-06-02T20:45:06.722Z,53.04
2018-06-02T20:46:43.345Z,53.10
2018-06-02T20:48:20.586Z,53.23
2018-06-02T20:49:57.363Z,53.10
2018-06-02T20:51:33.620Z,53.09
2018-06-02T20:53:10.143Z,52.51
2018-06-02T20:54:47.752Z,52.62
2018-06-02T20:56:24.053Z,52.59
2018-06-02T20:58:00.363Z,52.59
2018-06-02T20:59:37.517Z,52.57
2018-06-02T21:01:14.324Z,52.69
2018-06-02T21:02:50.577Z,52.62
2018-06-02T21:04:26.820Z,52.59
2018-06-02T21:06:03.271Z,53.14